Time;durP1;ratioP1;P1;durP2;ratioP2;P2;SDS_P1;SDS_P2;PMS_P1;PMS_P2;Temp;Humidity;BMP_temperature;BMP_pressure;BME280_temperature;BME280_humidity;BME280_pressure;Samples;Min_cycle;Max_cycle;Signal;HPM_P1;HPM_P2
2023/12/23 00:01:09;;;;;;;8.20;1.93;;;;;;;;;;5033842;28;20033;-63
2023/12/23 00:03:34;;;;;;;13.00;2.03;;;;;;;;;;5033941;28;20278;-63
2023/12/23 00:05:59;;;;;;;12.30;1.43;;;;;;;;;;5034793;28;20259;-63
2023/12/23 00:08:24;;;;;;;9.07;1.97;;;;;;;;;;5032112;28;20267;-64
2023/12/23 00:10:50;;;;;;;7.50;1.67;;;;;;;;;;5034115;28;20673;-63
2023/12/23 00:13:15;;;;;;;5.63;1.60;;;;;;;;;;5034649;28;20029;-63
2023/12/23 00:15:40;;;;;;;7.88;1.70;;;;;;;;;;5032840;28;20080;-63
2023/12/23 00:18:05;;;;;;;6.93;1.83;;;;;;;;;;5034187;28;20555;-63
2023/12/23 00:20:31;;;;;;;8.68;1.67;;;;;;;;;;5035803;28;20662;-63
2023/12/23 00:22:56;;;;;;;12.20;2.40;;;;;;;;;;5026704;28;20029;-63
2023/12/23 00:25:21;;;;;;;9.33;2.60;;;;;;;;;;5016027;28;20410;-63
2023/12/23 00:27:46;;;;;;;9.40;1.35;;;;;;;;;;5020098;28;20262;-63
2023/12/23 00:30:13;;;;;;;6.87;1.63;;;;;;;;;;5034459;28;20484;-63
2023/12/23 00:32:40;;;;;;;13.93;1.83;;;;;;;;;;5033791;28;20781;-63
2023/12/23 00:35:05;;;;;;;6.95;1.98;;;;;;;;;;5034168;28;20025;-63
2023/12/23 00:37:31;;;;;;;10.45;1.92;;;;;;;;;;5033657;28;20026;-63
2023/12/23 00:39:56;;;;;;;8.03;1.50;;;;;;;;;;5032798;28;20033;-63
2023/12/23 00:42:21;;;;;;;6.37;1.70;;;;;;;;;;5034175;28;20278;-63
2023/12/23 00:44:46;;;;;;;10.00;1.77;;;;;;;;;;5033574;28;20274;-64
2023/12/23 00:47:11;;;;;;;9.30;1.67;;;;;;;;;;5032517;28;20321;-63
2023/12/23 00:49:37;;;;;;;14.47;1.93;;;;;;;;;;5033688;28;20274;-63
2023/12/23 00:52:02;;;;;;;5.07;1.37;;;;;;;;;;5033314;28;20270;-63
2023/12/23 00:54:27;;;;;;;7.25;1.50;;;;;;;;;;5033538;28;20270;-63
2023/12/23 00:56:52;;;;;;;9.07;1.63;;;;;;;;;;5029599;28;20017;-63
2023/12/23 00:59:18;;;;;;;9.90;1.77;;;;;;;;;;5033235;28;20288;-63
2023/12/23 01:01:43;;;;;;;6.65;1.80;;;;;;;;;;5033504;28;20022;-64
2023/12/23 01:04:08;;;;;;;6.63;1.05;;;;;;;;;;5033521;28;20037;-63
2023/12/23 01:06:34;;;;;;;7.00;1.60;;;;;;;;;;5032525;28;20025;-63
2023/12/23 01:08:59;;;;;;;8.30;1.25;;;;;;;;;;5032680;28;20024;-63
2023/12/23 01:11:24;;;;;;;7.03;1.67;;;;;;;;;;5030204;28;20013;-64
2023/12/23 01:13:50;;;;;;;9.93;1.70;;;;;;;;;;5033113;28;20495;-63
2023/12/23 01:16:15;;;;;;;5.55;1.30;;;;;;;;;;5032342;28;20769;-63
2023/12/23 01:18:40;;;;;;;3.17;1.10;;;;;;;;;;5033592;28;20081;-63
2023/12/23 01:21:05;;;;;;;7.93;1.40;;;;;;;;;;5033225;28;20401;-63
2023/12/23 01:23:31;;;;;;;8.82;1.92;;;;;;;;;;5032203;28;20108;-64
2023/12/23 01:25:56;;;;;;;8.10;1.73;;;;;;;;;;5033406;28;20021;-67
2023/12/23 01:28:21;;;;;;;6.80;1.30;;;;;;;;;;5025765;28;20017;-68
2023/12/23 01:30:46;;;;;;;6.97;1.08;;;;;;;;;;5031457;28;20022;-67
2023/12/23 01:33:11;;;;;;;7.50;1.23;;;;;;;;;;5032317;28;20026;-67
2023/12/23 01:35:39;;;;;;;7.25;1.40;;;;;;;;;;5032574;28;20036;-67
2023/12/23 01:38:04;;;;;;;8.43;1.35;;;;;;;;;;5032577;28;20495;-68
2023/12/23 01:40:29;;;;;;;5.97;1.17;;;;;;;;;;5033300;28;20097;-68
2023/12/23 01:42:54;;;;;;;4.65;0.85;;;;;;;;;;5032538;28;20361;-66
2023/12/23 01:45:20;;;;;;;6.10;1.03;;;;;;;;;;5032211;28;20018;-67
2023/12/23 01:47:47;;;;;;;12.10;1.50;;;;;;;;;;5032779;28;20312;-67
2023/12/23 01:50:13;;;;;;;9.05;1.88;;;;;;;;;;5032301;28;20017;-66
2023/12/23 01:52:39;;;;;;;10.68;1.77;;;;;;;;;;5024796;28;20037;-67
2023/12/23 01:55:05;;;;;;;7.32;1.42;;;;;;;;;;5033303;28;20033;-67
2023/12/23 01:57:30;;;;;;;6.90;1.60;;;;;;;;;;5031776;28;20423;-68
2023/12/23 01:59:56;;;;;;;7.47;1.77;;;;;;;;;;5032515;28;20104;-67
2023/12/23 02:02:21;;;;;;;5.80;1.65;;;;;;;;;;5031833;28;20025;-67
2023/12/23 02:04:46;;;;;;;9.95;1.27;;;;;;;;;;5031150;28;20017;-67
2023/12/23 02:07:11;;;;;;;5.57;1.07;;;;;;;;;;5031340;28;20107;-67
2023/12/23 02:09:37;;;;;;;7.63;1.40;;;;;;;;;;5030902;28;20401;-67
2023/12/23 02:12:02;;;;;;;6.45;1.70;;;;;;;;;;5030981;28;20025;-68
2023/12/23 02:14:30;;;;;;;6.37;1.50;;;;;;;;;;5031786;28;20042;-67
2023/12/23 02:16:56;;;;;;;4.15;1.38;;;;;;;;;;5028757;28;20271;-67
2023/12/23 02:19:21;;;;;;;9.80;1.50;;;;;;;;;;5032050;28;20029;-68
2023/12/23 02:21:46;;;;;;;6.27;1.77;;;;;;;;;;5031264;28;20439;-68
2023/12/23 02:24:12;;;;;;;7.27;1.47;;;;;;;;;;5032150;28;20825;-67
2023/12/23 02:26:37;;;;;;;8.65;1.60;;;;;;;;;;5032250;28;20809;-68
2023/12/23 02:29:03;;;;;;;8.20;1.60;;;;;;;;;;5031058;28;20119;-67
2023/12/23 02:31:28;;;;;;;9.32;1.70;;;;;;;;;;5032550;28;20210;-67
2023/12/23 02:33:54;;;;;;;14.43;1.70;;;;;;;;;;5025493;28;20410;-67
2023/12/23 02:36:20;;;;;;;4.28;1.45;;;;;;;;;;5031897;28;20022;-63
2023/12/23 02:38:45;;;;;;;4.07;1.23;;;;;;;;;;5031517;28;20079;-63
2023/12/23 02:41:11;;;;;;;4.80;1.50;;;;;;;;;;5029994;28;20398;-63
2023/12/23 02:43:36;;;;;;;8.30;1.47;;;;;;;;;;5031073;28;20027;-63
2023/12/23 02:46:01;;;;;;;10.00;1.40;;;;;;;;;;5031753;28;20328;-63
2023/12/23 02:48:26;;;;;;;6.70;1.40;;;;;;;;;;5031327;28;20480;-63
2023/12/23 02:50:51;;;;;;;9.67;1.80;;;;;;;;;;5026270;28;20018;-63
2023/12/23 02:53:17;;;;;;;4.97;1.13;;;;;;;;;;5028985;28;20269;-63
2023/12/23 02:55:42;;;;;;;10.93;2.47;;;;;;;;;;5031739;28;20454;-63
2023/12/23 02:58:09;;;;;;;16.50;2.22;;;;;;;;;;5030696;28;20022;-63
2023/12/23 03:00:35;;;;;;;9.20;2.03;;;;;;;;;;5030791;28;20029;-63
2023/12/23 03:03:00;;;;;;;6.13;1.77;;;;;;;;;;5031625;28;20037;-63
2023/12/23 03:05:25;;;;;;;5.13;1.47;;;;;;;;;;5031748;28;20279;-63
2023/12/23 03:07:50;;;;;;;9.30;2.22;;;;;;;;;;5028645;28;20259;-63
2023/12/23 03:10:15;;;;;;;8.40;2.00;;;;;;;;;;5030908;28;20022;-63
2023/12/23 03:12:41;;;;;;;12.43;1.95;;;;;;;;;;5030484;28;20030;-63
2023/12/23 03:15:07;;;;;;;6.80;2.30;;;;;;;;;;5030708;28;20049;-63
2023/12/23 03:17:32;;;;;;;5.53;1.92;;;;;;;;;;5030666;28;20741;-63
2023/12/23 03:19:58;;;;;;;4.50;1.73;;;;;;;;;;5030869;28;20025;-63
2023/12/23 03:22:23;;;;;;;4.10;1.60;;;;;;;;;;5031438;28;20044;-63
2023/12/23 03:24:48;;;;;;;9.25;1.75;;;;;;;;;;5031171;28;20329;-63
2023/12/23 03:27:13;;;;;;;10.48;1.90;;;;;;;;;;5024814;28;20033;-63
2023/12/23 03:29:39;;;;;;;4.83;2.00;;;;;;;;;;5029760;28;20432;-64
2023/12/23 03:32:04;;;;;;;9.27;2.20;;;;;;;;;;5031223;28;20273;-63
2023/12/23 03:34:29;;;;;;;4.97;1.77;;;;;;;;;;5031278;28;20274;-63
2023/12/23 03:36:54;;;;;;;8.63;1.97;;;;;;;;;;5030056;28;20026;-63
2023/12/23 03:39:19;;;;;;;5.10;1.83;;;;;;;;;;5029378;28;20258;-63
2023/12/23 03:41:45;;;;;;;5.90;2.03;;;;;;;;;;5030499;28;20647;-63
2023/12/23 03:44:10;;;;;;;10.97;2.73;;;;;;;;;;5030886;28;20626;-63
2023/12/23 03:46:35;;;;;;;9.33;1.60;;;;;;;;;;5029824;28;20595;-67
2023/12/23 03:49:00;;;;;;;5.57;1.60;;;;;;;;;;5030849;28;20730;-67
2023/12/23 03:51:25;;;;;;;8.83;2.30;;;;;;;;;;5029634;28;20275;-68
2023/12/23 03:53:51;;;;;;;9.10;2.10;;;;;;;;;;5032294;28;20266;-67
2023/12/23 03:56:16;;;;;;;7.55;1.98;;;;;;;;;;5034181;28;20025;-67
2023/12/23 03:58:42;;;;;;;8.80;2.05;;;;;;;;;;5033580;28;20043;-68
2023/12/23 04:01:07;;;;;;;6.97;2.22;;;;;;;;;;5029740;28;20026;-67
2023/12/23 04:03:32;;;;;;;9.57;2.07;;;;;;;;;;5031962;28;20056;-67
2023/12/23 04:05:57;;;;;;;8.27;2.40;;;;;;;;;;5032988;28;20309;-67
2023/12/23 04:08:23;;;;;;;13.50;2.20;;;;;;;;;;5035012;28;20025;-68
2023/12/23 04:10:48;;;;;;;9.00;1.97;;;;;;;;;;5032449;28;20258;-67
2023/12/23 04:13:16;;;;;;;7.35;1.73;;;;;;;;;;5034198;28;20254;-68
2023/12/23 04:15:41;;;;;;;6.70;1.73;;;;;;;;;;5034034;28;20055;-66
2023/12/23 04:18:06;;;;;;;5.70;1.80;;;;;;;;;;5026952;28;20104;-67
2023/12/23 04:20:31;;;;;;;11.90;2.47;;;;;;;;;;5034477;28;20271;-67
2023/12/23 04:22:56;;;;;;;5.10;1.60;;;;;;;;;;5032194;28;20073;-67
2023/12/23 04:25:22;;;;;;;11.63;2.00;;;;;;;;;;5034626;28;20326;-67
2023/12/23 04:27:48;;;;;;;6.03;1.83;;;;;;;;;;5034701;28;20258;-67
2023/12/23 04:30:13;;;;;;;6.60;1.73;;;;;;;;;;5034095;28;20294;-68
2023/12/23 04:32:38;;;;;;;5.50;1.60;;;;;;;;;;5033835;28;20069;-67
2023/12/23 04:35:04;;;;;;;3.73;1.33;;;;;;;;;;5032273;28;20274;-67
2023/12/23 04:37:29;;;;;;;7.45;1.80;;;;;;;;;;5033401;28;20340;-68
2023/12/23 04:39:54;;;;;;;7.03;1.73;;;;;;;;;;5034178;28;20080;-67
2023/12/23 04:42:19;;;;;;;8.75;1.90;;;;;;;;;;5032891;28;20344;-67
2023/12/23 04:44:45;;;;;;;1.43;1.03;;;;;;;;;;5034290;28;20026;-68
2023/12/23 04:47:10;;;;;;;7.33;1.97;;;;;;;;;;5034196;28;20258;-67
2023/12/23 04:49:35;;;;;;;5.40;1.30;;;;;;;;;;5033349;28;20014;-67
2023/12/23 04:52:00;;;;;;;13.00;2.45;;;;;;;;;;5026201;28;20033;-67
2023/12/23 04:54:26;;;;;;;5.43;1.40;;;;;;;;;;5033924;28;20029;-68
2023/12/23 04:56:51;;;;;;;9.63;1.30;;;;;;;;;;5033848;28;20320;-67
2023/12/23 04:59:16;;;;;;;6.47;1.20;;;;;;;;;;5031927;28;20079;-67
2023/12/23 05:01:41;;;;;;;7.03;1.40;;;;;;;;;;5032672;28;20287;-67
2023/12/23 05:04:06;;;;;;;6.07;1.70;;;;;;;;;;5033230;28;20282;-67
2023/12/23 05:06:32;;;;;;;5.60;1.43;;;;;;;;;;5030334;28;20104;-67
2023/12/23 05:08:57;;;;;;;8.53;1.97;;;;;;;;;;5033601;28;20324;-68
2023/12/23 05:11:22;;;;;;;7.57;1.80;;;;;;;;;;5032272;28;20258;-67
2023/12/23 05:13:47;;;;;;;11.30;1.63;;;;;;;;;;5032341;28;20037;-68
2023/12/23 05:16:12;;;;;;;4.27;1.30;;;;;;;;;;5032791;28;20332;-67
2023/12/23 05:18:38;;;;;;;7.90;1.37;;;;;;;;;;5032884;28;20037;-67
2023/12/23 05:21:03;;;;;;;8.13;1.73;;;;;;;;;;5033199;28;20755;-67
2023/12/23 05:23:28;;;;;;;3.75;1.13;;;;;;;;;;5028302;28;20032;-67
2023/12/23 05:25:54;;;;;;;6.57;1.77;;;;;;;;;;5030899;28;20022;-67
2023/12/23 05:28:20;;;;;;;8.57;1.77;;;;;;;;;;5031226;28;20083;-68
2023/12/23 05:30:45;;;;;;;8.80;2.33;;;;;;;;;;5033116;28;20057;-67
2023/12/23 05:33:10;;;;;;;9.63;1.83;;;;;;;;;;5032445;28;20147;-68
2023/12/23 05:35:36;;;;;;;9.30;1.97;;;;;;;;;;5033252;28;20021;-68
2023/12/23 05:38:01;;;;;;;9.18;1.90;;;;;;;;;;5032458;28;20780;-67
2023/12/23 05:40:26;;;;;;;6.75;1.80;;;;;;;;;;5031713;28;20045;-68
2023/12/23 05:42:51;;;;;;;5.05;1.50;;;;;;;;;;5032225;28;20030;-66
2023/12/23 05:45:17;;;;;;;8.33;1.53;;;;;;;;;;5032989;28;20071;-68
2023/12/23 05:47:43;;;;;;;6.67;1.87;;;;;;;;;;5032989;28;20665;-67
2023/12/23 05:50:09;;;;;;;5.53;1.38;;;;;;;;;;5032149;28;20267;-67
2023/12/23 05:52:34;;;;;;;8.38;2.25;;;;;;;;;;5031509;28;20060;-68
2023/12/23 05:55:00;;;;;;;5.70;1.63;;;;;;;;;;5031089;28;20026;-68
2023/12/23 05:57:26;;;;;;;10.23;1.90;;;;;;;;;;5029594;28;20033;-67
2023/12/23 05:59:51;;;;;;;8.88;2.00;;;;;;;;;;5032046;28;20274;-67
2023/12/23 06:02:16;;;;;;;3.75;1.33;;;;;;;;;;5031869;28;20025;-66
2023/12/23 06:04:41;;;;;;;10.37;2.03;;;;;;;;;;5031759;28;20025;-67
2023/12/23 06:07:06;;;;;;;8.03;1.83;;;;;;;;;;5032224;28;20262;-67
2023/12/23 06:09:32;;;;;;;7.10;1.53;;;;;;;;;;5032700;28;20263;-68
2023/12/23 06:11:57;;;;;;;4.03;1.70;;;;;;;;;;5031913;28;20357;-67
2023/12/23 06:14:22;;;;;;;7.13;1.75;;;;;;;;;;5031470;28;20412;-67
2023/12/23 06:16:47;;;;;;;7.97;1.73;;;;;;;;;;5030506;28;20030;-66
2023/12/23 06:19:13;;;;;;;4.57;1.60;;;;;;;;;;5032427;28;20268;-68
2023/12/23 06:21:45;;;;;;;5.60;1.42;;;;;;;;;;5030795;28;20635;-68
2023/12/23 06:24:10;;;;;;;;;;;;;;;;;;5032528;28;20029;-67
2023/12/23 06:26:35;;;;;;;4.97;1.60;;;;;;;;;;5031824;28;19920;-68
2023/12/23 06:29:00;;;;;;;7.03;1.60;;;;;;;;;;5031299;28;20041;-68
2023/12/23 06:31:26;;;;;;;8.67;1.83;;;;;;;;;;5026944;28;20619;-67
2023/12/23 06:33:51;;;;;;;3.67;1.58;;;;;;;;;;5032461;28;20316;-68
2023/12/23 06:36:16;;;;;;;6.60;1.73;;;;;;;;;;5031497;28;20029;-67
2023/12/23 06:38:42;;;;;;;3.05;1.40;;;;;;;;;;5031531;28;20320;-68
2023/12/23 06:41:07;;;;;;;9.63;2.00;;;;;;;;;;5031236;28;20028;-68
2023/12/23 06:43:32;;;;;;;4.03;1.50;;;;;;;;;;5030948;28;20324;-67
2023/12/23 06:45:57;;;;;;;4.63;1.60;;;;;;;;;;5030747;28;20262;-67
2023/12/23 06:48:23;;;;;;;6.43;1.90;;;;;;;;;;5026473;28;20378;-67
2023/12/23 06:50:48;;;;;;;4.13;1.33;;;;;;;;;;5031192;28;20746;-67
2023/12/23 06:53:13;;;;;;;12.30;1.92;;;;;;;;;;5031543;28;20113;-67
2023/12/23 06:55:38;;;;;;;8.10;1.77;;;;;;;;;;5031693;28;20025;-66
2023/12/23 06:58:04;;;;;;;5.27;1.50;;;;;;;;;;5030929;28;20100;-69
2023/12/23 07:00:29;;;;;;;4.17;1.40;;;;;;;;;;5030809;28;20548;-68
2023/12/23 07:02:54;;;;;;;5.18;1.90;;;;;;;;;;5029991;28;20719;-68
2023/12/23 07:05:20;;;;;;;5.80;1.60;;;;;;;;;;5026320;28;20022;-68
2023/12/23 07:07:45;;;;;;;6.03;1.70;;;;;;;;;;5031974;28;20021;-68
2023/12/23 07:10:13;;;;;;;5.10;1.65;;;;;;;;;;5030354;28;20500;-68
2023/12/23 07:12:38;;;;;;;4.53;1.45;;;;;;;;;;5031947;28;20029;-68
2023/12/23 07:15:06;;;;;;;4.88;1.20;;;;;;;;;;5030837;28;20406;-68
2023/12/23 07:17:31;;;;;;;7.38;1.58;;;;;;;;;;5030442;28;20038;-68
2023/12/23 07:19:56;;;;;;;5.47;1.60;;;;;;;;;;5031651;28;20028;-68
2023/12/23 07:22:22;;;;;;;5.60;1.40;;;;;;;;;;5024801;28;20297;-67
2023/12/23 07:24:47;;;;;;;4.27;1.47;;;;;;;;;;5031582;28;20273;-68
2023/12/23 07:27:12;;;;;;;4.10;1.70;;;;;;;;;;5030385;28;20285;-67
2023/12/23 07:29:40;;;;;;;4.70;1.65;;;;;;;;;;5033707;28;20787;-68
2023/12/23 07:32:06;;;;;;;4.15;1.80;;;;;;;;;;5033579;28;20025;-66
2023/12/23 07:34:31;;;;;;;2.85;1.45;;;;;;;;;;5034548;28;20473;-68
2023/12/23 07:36:56;;;;;;;5.73;1.77;;;;;;;;;;5032706;28;20100;-68
2023/12/23 07:39:21;;;;;;;8.10;1.80;;;;;;;;;;5031371;28;20266;-66
2023/12/23 07:41:47;;;;;;;3.80;1.70;;;;;;;;;;5034423;28;20286;-68
2023/12/23 07:44:12;;;;;;;5.40;1.27;;;;;;;;;;5035013;28;20742;-77
2023/12/23 07:46:38;;;;;;;1.37;0.87;;;;;;;;;;5034370;28;20116;-67
2023/12/23 07:49:03;;;;;;;2.15;1.00;;;;;;;;;;5035300;28;20290;-68
2023/12/23 07:51:28;;;;;;;1.33;0.85;;;;;;;;;;5033738;28;20450;-68
2023/12/23 07:53:53;;;;;;;2.17;0.80;;;;;;;;;;5033433;28;20017;-68
2023/12/23 07:56:18;;;;;;;0.80;0.60;;;;;;;;;;5028135;28;20591;-68
2023/12/23 07:58:44;;;;;;;1.07;0.53;;;;;;;;;;5034625;28;20022;-68
2023/12/23 08:01:09;;;;;;;3.77;0.60;;;;;;;;;;5033385;28;20275;-68
2023/12/23 08:03:34;;;;;;;3.10;0.70;;;;;;;;;;5034760;28;20035;-67
2023/12/23 08:05:59;;;;;;;2.07;0.60;;;;;;;;;;5033077;28;20263;-68
2023/12/23 08:08:24;;;;;;;0.73;0.63;;;;;;;;;;5031890;28;20263;-67
2023/12/23 08:10:52;;;;;;;0.93;0.60;;;;;;;;;;5033116;28;20428;-68
2023/12/23 08:13:17;;;;;;;1.27;0.60;;;;;;;;;;5029820;28;20293;-68
2023/12/23 08:15:43;;;;;;;1.15;0.60;;;;;;;;;;5034356;28;20045;-68
2023/12/23 08:18:08;;;;;;;3.80;0.60;;;;;;;;;;5032933;28;20021;-68
2023/12/23 08:20:33;;;;;;;1.53;0.87;;;;;;;;;;5026815;28;20448;-65
2023/12/23 08:22:58;;;;;;;1.60;0.50;;;;;;;;;;5033074;28;20377;-67
2023/12/23 08:25:23;;;;;;;1.25;0.63;;;;;;;;;;5034294;28;20545;-68
2023/12/23 08:27:49;;;;;;;0.60;0.47;;;;;;;;;;5032610;28;20021;-67
2023/12/23 08:30:14;;;;;;;2.63;0.70;;;;;;;;;;5030219;28;20358;-68
2023/12/23 08:32:39;;;;;;;1.13;0.40;;;;;;;;;;5032661;28;20370;-68
2023/12/23 08:35:05;;;;;;;0.50;0.50;;;;;;;;;;5032178;28;20293;-68
2023/12/23 08:37:30;;;;;;;1.13;0.50;;;;;;;;;;5033577;28;20104;-67
2023/12/23 08:39:55;;;;;;;1.47;0.50;;;;;;;;;;5032155;28;20029;-67
2023/12/23 08:42:20;;;;;;;2.77;0.60;;;;;;;;;;5033347;28;20274;-68
2023/12/23 08:44:47;;;;;;;0.98;0.35;;;;;;;;;;5031908;28;20262;-67
2023/12/23 08:47:15;;;;;;;0.80;0.65;;;;;;;;;;5028606;28;20036;-68
2023/12/23 08:49:41;;;;;;;0.30;0.30;;;;;;;;;;5033475;28;20030;-68
2023/12/23 08:52:06;;;;;;;1.83;0.55;;;;;;;;;;5032671;28;20036;-67
2023/12/23 08:54:31;;;;;;;1.45;0.50;;;;;;;;;;5033667;28;20024;-68
2023/12/23 08:56:57;;;;;;;0.43;0.40;;;;;;;;;;5032697;28;20026;-68
2023/12/23 08:59:22;;;;;;;1.55;0.50;;;;;;;;;;5033207;28;20274;-68
2023/12/23 09:01:47;;;;;;;0.63;0.40;;;;;;;;;;5032010;28;20025;-67
2023/12/23 09:04:12;;;;;;;0.20;0.20;;;;;;;;;;5032934;28;20024;-68
2023/12/23 09:06:38;;;;;;;0.40;0.40;;;;;;;;;;5031637;28;20377;-68
2023/12/23 09:09:03;;;;;;;0.30;0.30;;;;;;;;;;5032729;28;20377;-68
2023/12/23 09:11:28;;;;;;;1.30;0.30;;;;;;;;;;5033335;28;20559;-68
2023/12/23 09:13:53;;;;;;;0.27;0.20;;;;;;;;;;5030238;28;20757;-68
2023/12/23 09:16:19;;;;;;;0.40;0.40;;;;;;;;;;5032644;28;20634;-68
2023/12/23 09:18:44;;;;;;;0.80;0.57;;;;;;;;;;5032382;28;20691;-68
2023/12/23 09:21:09;;;;;;;2.60;0.43;;;;;;;;;;5024114;28;20029;-67
2023/12/23 09:23:34;;;;;;;1.55;0.50;;;;;;;;;;5033016;28;20442;-68
2023/12/23 09:25:59;;;;;;;5.20;0.43;;;;;;;;;;5032768;28;20033;-68
2023/12/23 09:28:25;;;;;;;0.37;0.20;;;;;;;;;;5032011;28;20261;-67
2023/12/23 09:30:50;;;;;;;1.25;0.47;;;;;;;;;;5030656;28;20270;-66
2023/12/23 09:33:16;;;;;;;0.40;0.40;;;;;;;;;;5032438;28;20017;-67
2023/12/23 09:35:42;;;;;;;2.88;0.50;;;;;;;;;;5032154;28;20397;-62
2023/12/23 09:38:08;;;;;;;0.45;0.40;;;;;;;;;;5031480;28;20041;-62
2023/12/23 09:40:33;;;;;;;0.47;0.40;;;;;;;;;;5031055;28;20100;-62
2023/12/23 09:42:59;;;;;;;1.50;0.50;;;;;;;;;;5032115;28;20072;-65
2023/12/23 09:45:25;;;;;;;2.90;0.40;;;;;;;;;;5034259;28;20266;-65
2023/12/23 09:47:50;;;;;;;0.57;0.28;;;;;;;;;;5034313;28;20036;-65
2023/12/23 09:50:16;;;;;;;0.50;0.30;;;;;;;;;;5034222;28;20013;-65
2023/12/23 09:52:41;;;;;;;0.70;0.57;;;;;;;;;;5033780;28;20746;-65
2023/12/23 09:55:09;;;;;;;0.50;0.30;;;;;;;;;;5038593;28;20270;-65
2023/12/23 09:57:35;;;;;;;0.35;0.30;;;;;;;;;;5034765;28;20034;-65
2023/12/23 10:00:00;;;;;;;1.48;0.60;;;;;;;;;;5034370;28;20397;-65
2023/12/23 10:02:26;;;;;;;0.30;0.30;;;;;;;;;;5050011;28;20029;-65
2023/12/23 10:04:51;;;;;;;1.00;0.30;;;;;;;;;;5053965;28;20102;-65
2023/12/23 10:07:16;;;;;;;1.10;0.30;;;;;;;;;;5045870;28;20249;-65
2023/12/23 10:09:41;;;;;;;0.43;0.30;;;;;;;;;;5044192;28;20332;-65
2023/12/23 10:12:07;;;;;;;0.20;0.20;;;;;;;;;;5039186;28;20028;-65
2023/12/23 10:14:32;;;;;;;0.52;0.50;;;;;;;;;;5043394;28;20045;-63
2023/12/23 10:16:57;;;;;;;2.93;0.50;;;;;;;;;;5041182;28;20466;-63
2023/12/23 10:19:23;;;;;;;0.38;0.30;;;;;;;;;;5032258;28;20742;-63
2023/12/23 10:21:48;;;;;;;0.47;0.40;;;;;;;;;;5032218;28;20061;-63
2023/12/23 10:24:13;;;;;;;2.03;0.50;;;;;;;;;;5032903;28;20092;-63
2023/12/23 10:26:41;;;;;;;0.77;0.30;;;;;;;;;;5033102;28;20021;-64
2023/12/23 10:29:06;;;;;;;0.20;0.20;;;;;;;;;;5029973;28;20013;-63
2023/12/23 10:31:33;;;;;;;0.55;0.40;;;;;;;;;;5026159;28;20036;-63
2023/12/23 10:34:00;;;;;;;0.90;0.55;;;;;;;;;;5024744;28;20397;-65
2023/12/23 10:36:26;;;;;;;1.27;0.30;;;;;;;;;;5023144;28;20097;-65
2023/12/23 10:38:53;;;;;;;0.38;0.30;;;;;;;;;;5030001;28;20652;-65
2023/12/23 10:41:37;;;;;;;0.65;0.35;;;;;;;;;;5031261;28;20021;-65
2023/12/23 10:44:04;;;;;;;0.40;0.35;;;;;;;;;;5029319;28;20025;-65
2023/12/23 10:46:30;;;;;;;1.77;0.50;;;;;;;;;;5028534;28;20033;-68
2023/12/23 10:48:56;;;;;;;0.45;0.40;;;;;;;;;;5031087;28;20392;-76
2023/12/23 10:51:22;;;;;;;0.20;0.20;;;;;;;;;;5022172;28;20025;-76
2023/12/23 10:53:48;;;;;;;0.57;0.47;;;;;;;;;;5031511;28;20022;-75
2023/12/23 10:56:14;;;;;;;0.55;0.30;;;;;;;;;;5029827;28;20021;-68
2023/12/23 10:58:40;;;;;;;0.75;0.45;;;;;;;;;;5031425;28;20034;-68
2023/12/23 11:01:06;;;;;;;0.47;0.30;;;;;;;;;;5030678;28;20018;-68
2023/12/23 11:03:33;;;;;;;0.80;0.30;;;;;;;;;;5029167;28;20528;-68
2023/12/23 11:05:59;;;;;;;0.25;0.25;;;;;;;;;;5033432;28;20067;-68
2023/12/23 11:08:25;;;;;;;2.55;0.40;;;;;;;;;;5034696;28;20183;-68
2023/12/23 11:10:51;;;;;;;1.60;0.38;;;;;;;;;;5033534;28;20793;-66
2023/12/23 11:13:18;;;;;;;1.00;0.40;;;;;;;;;;5031154;28;20032;-68
2023/12/23 11:15:46;;;;;;;2.10;0.40;;;;;;;;;;5033877;28;20049;-68
2023/12/23 11:18:11;;;;;;;0.35;0.30;;;;;;;;;;5029629;28;20017;-68
2023/12/23 11:20:42;;;;;;;0.43;0.30;;;;;;;;;;5034201;28;20029;-68
2023/12/23 11:23:26;;;;;;;2.33;0.30;;;;;;;;;;5034152;28;20525;-68
2023/12/23 11:25:51;;;;;;;1.02;0.35;;;;;;;;;;5027945;28;20029;-68
2023/12/23 11:28:17;;;;;;;4.60;0.40;;;;;;;;;;5033927;28;20021;-68
2023/12/23 11:30:45;;;;;;;1.00;0.40;;;;;;;;;;5029751;28;20263;-68
2023/12/23 11:33:10;;;;;;;2.67;0.50;;;;;;;;;;5034600;28;20025;-68
2023/12/23 11:35:37;;;;;;;1.45;0.40;;;;;;;;;;5029572;28;20120;-68
2023/12/23 11:38:02;;;;;;;0.20;0.20;;;;;;;;;;5033964;28;20477;-68
2023/12/23 11:40:30;;;;;;;1.75;0.40;;;;;;;;;;5035117;28;20017;-68
2023/12/23 11:42:55;;;;;;;0.30;0.30;;;;;;;;;;5034274;28;20488;-68
2023/12/23 11:45:20;;;;;;;0.20;0.20;;;;;;;;;;5034139;28;20017;-68
2023/12/23 11:47:46;;;;;;;0.20;0.20;;;;;;;;;;5034677;28;20041;-68
2023/12/23 11:50:14;;;;;;;0.35;0.35;;;;;;;;;;5032557;28;20262;-68
2023/12/23 11:52:40;;;;;;;0.70;0.40;;;;;;;;;;5033978;28;20473;-68
2023/12/23 11:55:05;;;;;;;0.20;0.20;;;;;;;;;;5034038;28;20079;-68
2023/12/23 11:57:31;;;;;;;0.30;0.30;;;;;;;;;;5033586;28;20029;-68
2023/12/23 11:59:59;;;;;;;0.93;0.50;;;;;;;;;;5035189;28;20101;-68
2023/12/23 12:02:25;;;;;;;1.52;0.43;;;;;;;;;;5032675;28;20552;-68
2023/12/23 12:04:51;;;;;;;1.65;0.32;;;;;;;;;;5033938;28;20109;-62
2023/12/23 12:07:16;;;;;;;0.43;0.38;;;;;;;;;;5033871;28;20454;-62
2023/12/23 12:09:43;;;;;;;0.73;0.32;;;;;;;;;;5028032;28;20032;-62
2023/12/23 12:12:08;;;;;;;0.43;0.30;;;;;;;;;;5033453;28;20087;-62
2023/12/23 12:14:33;;;;;;;0.10;0.10;;;;;;;;;;5032817;28;20042;-62
2023/12/23 12:16:58;;;;;;;0.43;0.28;;;;;;;;;;5032912;28;20022;-62
2023/12/23 12:19:24;;;;;;;0.73;0.40;;;;;;;;;;5033566;28;20025;-62
2023/12/23 12:21:49;;;;;;;1.02;0.50;;;;;;;;;;5040774;28;20036;-62
2023/12/23 12:24:14;;;;;;;0.40;0.30;;;;;;;;;;5037535;28;20072;-62
2023/12/23 12:26:41;;;;;;;0.30;0.30;;;;;;;;;;5037407;28;20557;-62
2023/12/23 12:29:06;;;;;;;1.10;0.50;;;;;;;;;;5033221;28;20615;-62
2023/12/23 12:31:32;;;;;;;1.75;0.40;;;;;;;;;;5032896;28;20025;-62
2023/12/23 12:33:57;;;;;;;0.38;0.38;;;;;;;;;;5034207;28;20029;-63
2023/12/23 12:36:23;;;;;;;0.82;0.30;;;;;;;;;;5036093;28;20021;-62
2023/12/23 12:38:49;;;;;;;1.35;0.43;;;;;;;;;;5033834;28;20017;-62
2023/12/23 12:41:15;;;;;;;0.20;0.20;;;;;;;;;;5031167;28;20029;-62
2023/12/23 12:43:40;;;;;;;0.65;0.30;;;;;;;;;;5033588;28;20018;-62
2023/12/23 12:46:06;;;;;;;0.40;0.40;;;;;;;;;;5033450;28;20029;-62
2023/12/23 12:48:32;;;;;;;0.40;0.30;;;;;;;;;;5039619;28;20740;-62
2023/12/23 12:50:57;;;;;;;1.05;0.30;;;;;;;;;;5032793;28;20104;-62
2023/12/23 12:53:23;;;;;;;0.25;0.25;;;;;;;;;;5031451;28;20029;-62
2023/12/23 12:55:48;;;;;;;1.30;0.52;;;;;;;;;;5030207;28;20472;-62
2023/12/23 12:58:13;;;;;;;0.60;0.50;;;;;;;;;;5034077;28;20026;-62
2023/12/23 13:00:39;;;;;;;1.35;0.50;;;;;;;;;;5024921;28;20267;-62
2023/12/23 13:03:04;;;;;;;0.63;0.63;;;;;;;;;;5032955;28;20017;-62
2023/12/23 13:05:29;;;;;;;2.15;0.98;;;;;;;;;;5032315;28;20271;-62
2023/12/23 13:07:55;;;;;;;1.92;0.52;;;;;;;;;;5031938;28;20025;-62
2023/12/23 13:10:20;;;;;;;0.73;0.50;;;;;;;;;;5033215;28;20417;-62
2023/12/23 13:12:45;;;;;;;2.10;0.80;;;;;;;;;;5032699;28;20119;-62
2023/12/23 13:15:11;;;;;;;0.40;0.40;;;;;;;;;;5024674;28;20493;-62
2023/12/23 13:17:36;;;;;;;1.33;0.47;;;;;;;;;;5032953;28;20750;-62
2023/12/23 13:20:03;;;;;;;0.70;0.40;;;;;;;;;;5031064;28;20029;-62
2023/12/23 13:22:28;;;;;;;2.03;0.60;;;;;;;;;;5024922;28;20025;-62
2023/12/23 13:24:53;;;;;;;0.50;0.40;;;;;;;;;;5032640;28;20067;-62
2023/12/23 13:27:18;;;;;;;0.40;0.40;;;;;;;;;;5031269;28;20022;-62
2023/12/23 13:29:44;;;;;;;0.52;0.40;;;;;;;;;;5031403;28;20321;-62
2023/12/23 13:32:09;;;;;;;0.43;0.40;;;;;;;;;;5033222;28;20148;-62
2023/12/23 13:34:34;;;;;;;0.37;0.33;;;;;;;;;;5030384;28;20018;-62
2023/12/23 13:36:59;;;;;;;3.10;0.50;;;;;;;;;;5032940;28;20298;-62
2023/12/23 13:39:25;;;;;;;1.40;0.70;;;;;;;;;;5032673;28;20290;-62
2023/12/23 13:41:50;;;;;;;0.60;0.45;;;;;;;;;;5032321;28;20040;-62
2023/12/23 13:44:16;;;;;;;0.50;0.45;;;;;;;;;;5032254;28;20052;-63
2023/12/23 13:46:41;;;;;;;0.60;0.30;;;;;;;;;;5029429;28;20075;-62
2023/12/23 13:49:06;;;;;;;0.40;0.30;;;;;;;;;;5032208;28;20072;-62
2023/12/23 13:51:32;;;;;;;4.85;0.35;;;;;;;;;;5032141;28;20017;-62
2023/12/23 13:53:57;;;;;;;0.68;0.32;;;;;;;;;;5031032;28;20393;-62
2023/12/23 13:56:22;;;;;;;0.20;0.20;;;;;;;;;;5032691;28;20025;-62
2023/12/23 13:58:48;;;;;;;0.57;0.40;;;;;;;;;;5032419;28;20033;-62
2023/12/23 14:01:13;;;;;;;2.75;0.30;;;;;;;;;;5031913;28;20278;-62
2023/12/23 14:03:38;;;;;;;1.60;0.50;;;;;;;;;;5030641;28;20033;-62
2023/12/23 14:06:04;;;;;;;3.80;0.82;;;;;;;;;;5029940;28;20273;-63
2023/12/23 14:08:29;;;;;;;1.17;0.50;;;;;;;;;;5031842;28;20064;-62
2023/12/23 14:10:54;;;;;;;0.85;0.40;;;;;;;;;;5030235;28;20108;-62
2023/12/23 14:13:19;;;;;;;0.40;0.40;;;;;;;;;;5032861;28;20025;-62
2023/12/23 14:15:45;;;;;;;0.50;0.27;;;;;;;;;;5031611;28;20790;-62
2023/12/23 14:18:10;;;;;;;2.65;0.60;;;;;;;;;;5030888;28;20761;-62
2023/12/23 14:20:36;;;;;;;1.63;0.40;;;;;;;;;;5029242;28;20033;-62
2023/12/23 14:23:01;;;;;;;0.38;0.30;;;;;;;;;;5032150;28;20079;-62
2023/12/23 14:25:26;;;;;;;0.30;0.30;;;;;;;;;;5029621;28;20018;-62
2023/12/23 14:27:51;;;;;;;0.25;0.25;;;;;;;;;;5030341;28;20345;-62
2023/12/23 14:30:17;;;;;;;0.50;0.40;;;;;;;;;;5030455;28;20055;-62
2023/12/23 14:32:42;;;;;;;0.45;0.45;;;;;;;;;;5033228;28;20053;-62